sensor_id;sensor_type;location;lat;lon;timestamp;P1;durP1;ratioP1;P2;durP2;ratioP2
8952;SDS011;4511;50.890;8.054;2023-07-02T00:01:51;6.03;;;3.93;;
8952;SDS011;4511;50.890;8.054;2023-07-02T00:04:18;4.23;;;3.73;;
8952;SDS011;4511;50.890;8.054;2023-07-02T00:06:45;4.43;;;4.13;;
8952;SDS011;4511;50.890;8.054;2023-07-02T00:09:13;4.93;;;4.47;;
8952;SDS011;4511;50.890;8.054;2023-07-02T00:11:42;4.50;;;4.10;;
8952;SDS011;4511;50.890;8.054;2023-07-02T00:14:12;5.50;;;5.10;;
8952;SDS011;4511;50.890;8.054;2023-07-02T00:16:41;5.50;;;5.10;;
8952;SDS011;4511;50.890;8.054;2023-07-02T00:19:09;5.87;;;5.23;;
8952;SDS011;4511;50.890;8.054;2023-07-02T00:21:36;6.77;;;6.17;;
8952;SDS011;4511;50.890;8.054;2023-07-02T00:24:05;5.97;;;5.47;;
8952;SDS011;4511;50.890;8.054;2023-07-02T00:26:34;7.60;;;6.57;;
8952;SDS011;4511;50.890;8.054;2023-07-02T00:29:03;7.70;;;7.00;;
8952;SDS011;4511;50.890;8.054;2023-07-02T00:31:31;7.30;;;6.70;;
8952;SDS011;4511;50.890;8.054;2023-07-02T00:33:58;7.43;;;6.73;;
8952;SDS011;4511;50.890;8.054;2023-07-02T00:36:26;7.80;;;7.00;;
8952;SDS011;4511;50.890;8.054;2023-07-02T00:38:53;7.60;;;6.57;;
8952;SDS011;4511;50.890;8.054;2023-07-02T00:41:19;8.80;;;8.00;;
8952;SDS011;4511;50.890;8.054;2023-07-02T00:43:46;10.77;;;8.87;;
8952;SDS011;4511;50.890;8.054;2023-07-02T00:46:15;10.90;;;9.83;;
8952;SDS011;4511;50.890;8.054;2023-07-02T00:48:45;10.43;;;9.43;;
8952;SDS011;4511;50.890;8.054;2023-07-02T00:51:14;10.67;;;9.57;;
8952;SDS011;4511;50.890;8.054;2023-07-02T00:53:43;11.40;;;10.27;;
8952;SDS011;4511;50.890;8.054;2023-07-02T00:56:11;12.63;;;11.30;;
8952;SDS011;4511;50.890;8.054;2023-07-02T00:58:38;13.47;;;10.03;;
8952;SDS011;4511;50.890;8.054;2023-07-02T01:01:14;12.53;;;11.33;;
8952;SDS011;4511;50.890;8.054;2023-07-02T01:03:52;13.30;;;10.33;;
8952;SDS011;4511;50.890;8.054;2023-07-02T01:06:22;11.77;;;10.67;;
8952;SDS011;4511;50.890;8.054;2023-07-02T01:08:51;10.43;;;9.43;;
8952;SDS011;4511;50.890;8.054;2023-07-02T01:11:19;10.27;;;9.27;;
8952;SDS011;4511;50.890;8.054;2023-07-02T01:13:51;10.63;;;9.33;;
8952;SDS011;4511;50.890;8.054;2023-07-02T01:16:22;13.03;;;8.83;;
8952;SDS011;4511;50.890;8.054;2023-07-02T01:18:49;9.33;;;8.37;;
8952;SDS011;4511;50.890;8.054;2023-07-02T01:21:20;9.77;;;8.77;;
8952;SDS011;4511;50.890;8.054;2023-07-02T01:23:49;8.73;;;8.00;;
8952;SDS011;4511;50.890;8.054;2023-07-02T01:26:16;8.40;;;7.50;;
8952;SDS011;4511;50.890;8.054;2023-07-02T01:28:43;11.07;;;8.37;;
8952;SDS011;4511;50.890;8.054;2023-07-02T01:31:10;8.87;;;7.13;;
8952;SDS011;4511;50.890;8.054;2023-07-02T01:33:36;8.17;;;6.77;;
8952;SDS011;4511;50.890;8.054;2023-07-02T01:36:03;10.37;;;7.13;;
8952;SDS011;4511;50.890;8.054;2023-07-02T01:38:34;7.17;;;6.33;;
8952;SDS011;4511;50.890;8.054;2023-07-02T01:41:00;9.20;;;7.13;;
8952;SDS011;4511;50.890;8.054;2023-07-02T01:43:27;7.80;;;7.00;;
8952;SDS011;4511;50.890;8.054;2023-07-02T01:45:54;10.63;;;7.50;;
8952;SDS011;4511;50.890;8.054;2023-07-02T01:48:21;9.30;;;6.27;;
8952;SDS011;4511;50.890;8.054;2023-07-02T01:50:48;10.27;;;5.87;;
8952;SDS011;4511;50.890;8.054;2023-07-02T01:53:15;6.80;;;6.10;;
8952;SDS011;4511;50.890;8.054;2023-07-02T01:55:43;7.37;;;5.87;;
8952;SDS011;4511;50.890;8.054;2023-07-02T01:58:10;7.10;;;5.73;;
8952;SDS011;4511;50.890;8.054;2023-07-02T02:00:36;7.07;;;5.70;;
8952;SDS011;4511;50.890;8.054;2023-07-02T02:03:04;7.80;;;5.37;;
8952;SDS011;4511;50.890;8.054;2023-07-02T02:05:31;12.60;;;5.47;;
8952;SDS011;4511;50.890;8.054;2023-07-02T02:07:57;7.33;;;5.77;;
8952;SDS011;4511;50.890;8.054;2023-07-02T02:10:24;6.40;;;5.10;;
8952;SDS011;4511;50.890;8.054;2023-07-02T02:12:52;8.37;;;5.70;;
8952;SDS011;4511;50.890;8.054;2023-07-02T02:15:19;9.63;;;5.20;;
8952;SDS011;4511;50.890;8.054;2023-07-02T02:17:46;9.00;;;5.10;;
8952;SDS011;4511;50.890;8.054;2023-07-02T02:20:12;7.13;;;5.20;;
8952;SDS011;4511;50.890;8.054;2023-07-02T02:22:39;6.10;;;5.30;;
8952;SDS011;4511;50.890;8.054;2023-07-02T02:25:06;6.37;;;4.93;;
8952;SDS011;4511;50.890;8.054;2023-07-02T02:27:34;6.80;;;4.60;;
8952;SDS011;4511;50.890;8.054;2023-07-02T02:30:06;6.33;;;4.53;;
8952;SDS011;4511;50.890;8.054;2023-07-02T02:32:34;9.97;;;5.23;;
8952;SDS011;4511;50.890;8.054;2023-07-02T02:35:00;8.80;;;5.23;;
8952;SDS011;4511;50.890;8.054;2023-07-02T02:37:28;6.83;;;5.43;;
8952;SDS011;4511;50.890;8.054;2023-07-02T02:39:55;8.17;;;5.60;;
8952;SDS011;4511;50.890;8.054;2023-07-02T02:42:22;11.93;;;6.40;;
8952;SDS011;4511;50.890;8.054;2023-07-02T02:44:49;6.73;;;5.67;;
8952;SDS011;4511;50.890;8.054;2023-07-02T02:47:17;9.33;;;5.67;;
8952;SDS011;4511;50.890;8.054;2023-07-02T02:49:44;7.13;;;5.30;;
8952;SDS011;4511;50.890;8.054;2023-07-02T02:52:11;8.13;;;5.30;;
8952;SDS011;4511;50.890;8.054;2023-07-02T02:54:39;11.27;;;5.37;;
8952;SDS011;4511;50.890;8.054;2023-07-02T02:57:06;8.70;;;5.10;;
8952;SDS011;4511;50.890;8.054;2023-07-02T02:59:33;10.97;;;5.80;;
8952;SDS011;4511;50.890;8.054;2023-07-02T03:01:59;8.40;;;5.40;;
8952;SDS011;4511;50.890;8.054;2023-07-02T03:04:28;7.70;;;5.33;;
8952;SDS011;4511;50.890;8.054;2023-07-02T03:06:54;8.10;;;5.57;;
8952;SDS011;4511;50.890;8.054;2023-07-02T03:09:21;11.97;;;5.90;;
8952;SDS011;4511;50.890;8.054;2023-07-02T03:11:48;7.37;;;5.40;;
8952;SDS011;4511;50.890;8.054;2023-07-02T03:14:15;7.73;;;5.80;;
8952;SDS011;4511;50.890;8.054;2023-07-02T03:16:42;8.03;;;5.40;;
8952;SDS011;4511;50.890;8.054;2023-07-02T03:19:10;6.93;;;5.50;;
8952;SDS011;4511;50.890;8.054;2023-07-02T03:21:41;9.80;;;5.50;;
8952;SDS011;4511;50.890;8.054;2023-07-02T03:24:08;9.43;;;5.37;;
8952;SDS011;4511;50.890;8.054;2023-07-02T03:26:36;7.43;;;5.20;;
8952;SDS011;4511;50.890;8.054;2023-07-02T03:29:03;8.17;;;5.10;;
8952;SDS011;4511;50.890;8.054;2023-07-02T03:31:30;7.93;;;4.80;;
8952;SDS011;4511;50.890;8.054;2023-07-02T03:33:57;6.77;;;4.87;;
8952;SDS011;4511;50.890;8.054;2023-07-02T03:36:24;9.70;;;6.17;;
8952;SDS011;4511;50.890;8.054;2023-07-02T03:38:54;7.77;;;5.50;;
8952;SDS011;4511;50.890;8.054;2023-07-02T03:41:21;8.97;;;5.37;;
8952;SDS011;4511;50.890;8.054;2023-07-02T03:43:48;7.40;;;5.27;;
8952;SDS011;4511;50.890;8.054;2023-07-02T03:46:14;11.67;;;5.90;;
8952;SDS011;4511;50.890;8.054;2023-07-02T03:48:41;9.67;;;5.80;;
8952;SDS011;4511;50.890;8.054;2023-07-02T03:51:08;9.70;;;5.50;;
8952;SDS011;4511;50.890;8.054;2023-07-02T03:53:34;9.23;;;5.70;;
8952;SDS011;4511;50.890;8.054;2023-07-02T03:56:03;11.40;;;6.27;;
8952;SDS011;4511;50.890;8.054;2023-07-02T03:58:30;10.33;;;6.10;;
8952;SDS011;4511;50.890;8.054;2023-07-02T04:00:57;11.77;;;6.03;;
8952;SDS011;4511;50.890;8.054;2023-07-02T04:03:23;8.47;;;5.80;;
8952;SDS011;4511;50.890;8.054;2023-07-02T04:05:50;10.77;;;6.17;;
8952;SDS011;4511;50.890;8.054;2023-07-02T04:08:17;11.90;;;6.50;;
8952;SDS011;4511;50.890;8.054;2023-07-02T04:10:46;9.67;;;5.87;;
8952;SDS011;4511;50.890;8.054;2023-07-02T04:13:14;8.33;;;6.37;;
8952;SDS011;4511;50.890;8.054;2023-07-02T04:15:41;7.93;;;6.17;;
8952;SDS011;4511;50.890;8.054;2023-07-02T04:18:07;11.43;;;6.33;;
8952;SDS011;4511;50.890;8.054;2023-07-02T04:20:34;10.07;;;6.80;;
8952;SDS011;4511;50.890;8.054;2023-07-02T04:23:03;11.57;;;6.67;;
8952;SDS011;4511;50.890;8.054;2023-07-02T04:25:30;12.13;;;6.93;;
8952;SDS011;4511;50.890;8.054;2023-07-02T04:27:57;12.50;;;6.43;;
8952;SDS011;4511;50.890;8.054;2023-07-02T04:30:25;11.90;;;6.80;;
8952;SDS011;4511;50.890;8.054;2023-07-02T04:32:52;9.57;;;7.10;;
8952;SDS011;4511;50.890;8.054;2023-07-02T04:35:19;13.47;;;7.00;;
8952;SDS011;4511;50.890;8.054;2023-07-02T04:37:46;11.87;;;7.43;;
8952;SDS011;4511;50.890;8.054;2023-07-02T04:40:12;12.90;;;7.23;;
8952;SDS011;4511;50.890;8.054;2023-07-02T04:42:41;9.60;;;6.63;;
8952;SDS011;4511;50.890;8.054;2023-07-02T04:45:12;9.67;;;7.17;;
8952;SDS011;4511;50.890;8.054;2023-07-02T04:47:41;11.90;;;7.20;;
8952;SDS011;4511;50.890;8.054;2023-07-02T04:50:08;11.37;;;6.93;;
8952;SDS011;4511;50.890;8.054;2023-07-02T04:52:35;11.63;;;7.70;;
8952;SDS011;4511;50.890;8.054;2023-07-02T04:55:02;11.87;;;7.27;;
8952;SDS011;4511;50.890;8.054;2023-07-02T04:57:29;10.37;;;6.60;;
8952;SDS011;4511;50.890;8.054;2023-07-02T04:59:56;11.90;;;7.43;;
8952;SDS011;4511;50.890;8.054;2023-07-02T05:02:23;11.97;;;7.70;;
8952;SDS011;4511;50.890;8.054;2023-07-02T05:04:51;15.90;;;8.37;;
8952;SDS011;4511;50.890;8.054;2023-07-02T05:07:18;12.33;;;7.60;;
8952;SDS011;4511;50.890;8.054;2023-07-02T05:09:45;11.53;;;7.07;;
8952;SDS011;4511;50.890;8.054;2023-07-02T05:12:13;12.83;;;7.90;;
8952;SDS011;4511;50.890;8.054;2023-07-02T05:14:40;13.50;;;8.20;;
8952;SDS011;4511;50.890;8.054;2023-07-02T05:17:07;17.33;;;8.93;;
8952;SDS011;4511;50.890;8.054;2023-07-02T05:19:33;13.40;;;8.23;;
8952;SDS011;4511;50.890;8.054;2023-07-02T05:22:02;10.97;;;8.13;;
8952;SDS011;4511;50.890;8.054;2023-07-02T05:24:29;13.03;;;7.50;;
8952;SDS011;4511;50.890;8.054;2023-07-02T05:26:55;14.27;;;7.70;;
8952;SDS011;4511;50.890;8.054;2023-07-02T05:29:22;15.87;;;8.23;;
8952;SDS011;4511;50.890;8.054;2023-07-02T05:31:49;13.93;;;8.37;;
8952;SDS011;4511;50.890;8.054;2023-07-02T05:34:16;12.00;;;7.93;;
8952;SDS011;4511;50.890;8.054;2023-07-02T05:36:42;13.10;;;8.20;;
8952;SDS011;4511;50.890;8.054;2023-07-02T05:39:11;12.50;;;7.63;;
8952;SDS011;4511;50.890;8.054;2023-07-02T05:41:38;16.70;;;9.00;;
8952;SDS011;4511;50.890;8.054;2023-07-02T05:44:04;11.43;;;8.57;;
8952;SDS011;4511;50.890;8.054;2023-07-02T05:46:31;17.83;;;8.60;;
8952;SDS011;4511;50.890;8.054;2023-07-02T05:48:58;11.60;;;8.27;;
8952;SDS011;4511;50.890;8.054;2023-07-02T05:51:25;12.37;;;8.30;;
8952;SDS011;4511;50.890;8.054;2023-07-02T05:53:52;16.87;;;8.13;;
8952;SDS011;4511;50.890;8.054;2023-07-02T05:56:20;14.90;;;9.33;;
8952;SDS011;4511;50.890;8.054;2023-07-02T05:58:48;16.63;;;8.87;;
8952;SDS011;4511;50.890;8.054;2023-07-02T06:01:15;15.67;;;8.67;;
8952;SDS011;4511;50.890;8.054;2023-07-02T06:03:42;16.50;;;9.40;;
8952;SDS011;4511;50.890;8.054;2023-07-02T06:06:10;18.37;;;8.40;;
8952;SDS011;4511;50.890;8.054;2023-07-02T06:08:37;18.63;;;10.43;;
8952;SDS011;4511;50.890;8.054;2023-07-02T06:11:04;13.93;;;10.00;;
8952;SDS011;4511;50.890;8.054;2023-07-02T06:13:32;23.63;;;10.40;;
8952;SDS011;4511;50.890;8.054;2023-07-02T06:15:59;17.97;;;10.20;;
8952;SDS011;4511;50.890;8.054;2023-07-02T06:18:26;21.17;;;10.17;;
8952;SDS011;4511;50.890;8.054;2023-07-02T06:20:52;22.50;;;11.07;;
8952;SDS011;4511;50.890;8.054;2023-07-02T06:23:19;20.07;;;11.43;;
8952;SDS011;4511;50.890;8.054;2023-07-02T06:25:46;23.63;;;13.70;;
8952;SDS011;4511;50.890;8.054;2023-07-02T06:28:13;21.07;;;13.20;;
8952;SDS011;4511;50.890;8.054;2023-07-02T06:30:41;21.33;;;12.47;;
8952;SDS011;4511;50.890;8.054;2023-07-02T06:33:08;22.80;;;13.13;;
8952;SDS011;4511;50.890;8.054;2023-07-02T06:35:34;22.27;;;12.70;;
8952;SDS011;4511;50.890;8.054;2023-07-02T06:38:01;21.00;;;13.07;;
8952;SDS011;4511;50.890;8.054;2023-07-02T06:40:28;25.63;;;14.10;;
8952;SDS011;4511;50.890;8.054;2023-07-02T06:42:55;24.90;;;13.93;;
8952;SDS011;4511;50.890;8.054;2023-07-02T06:45:22;28.17;;;15.60;;
8952;SDS011;4511;50.890;8.054;2023-07-02T06:47:50;23.70;;;14.03;;
8952;SDS011;4511;50.890;8.054;2023-07-02T06:50:17;28.27;;;15.17;;
8952;SDS011;4511;50.890;8.054;2023-07-02T06:52:44;25.53;;;15.13;;
8952;SDS011;4511;50.890;8.054;2023-07-02T06:55:11;26.43;;;16.03;;
8952;SDS011;4511;50.890;8.054;2023-07-02T06:57:41;27.47;;;16.43;;
8952;SDS011;4511;50.890;8.054;2023-07-02T07:00:09;29.20;;;16.83;;
8952;SDS011;4511;50.890;8.054;2023-07-02T07:02:36;31.30;;;16.73;;
8952;SDS011;4511;50.890;8.054;2023-07-02T07:05:04;28.20;;;15.90;;
8952;SDS011;4511;50.890;8.054;2023-07-02T07:07:32;30.07;;;16.53;;
8952;SDS011;4511;50.890;8.054;2023-07-02T07:09:59;25.93;;;16.40;;
8952;SDS011;4511;50.890;8.054;2023-07-02T07:12:26;32.57;;;17.83;;
8952;SDS011;4511;50.890;8.054;2023-07-02T07:14:53;30.47;;;17.53;;
8952;SDS011;4511;50.890;8.054;2023-07-02T07:17:20;25.23;;;16.43;;
8952;SDS011;4511;50.890;8.054;2023-07-02T07:19:46;31.93;;;17.37;;
8952;SDS011;4511;50.890;8.054;2023-07-02T07:22:14;28.43;;;17.23;;
8952;SDS011;4511;50.890;8.054;2023-07-02T07:24:41;29.40;;;17.60;;
8952;SDS011;4511;50.890;8.054;2023-07-02T07:27:08;30.33;;;17.43;;
8952;SDS011;4511;50.890;8.054;2023-07-02T07:29:35;28.20;;;19.30;;
8952;SDS011;4511;50.890;8.054;2023-07-02T07:32:02;31.53;;;18.20;;
8952;SDS011;4511;50.890;8.054;2023-07-02T07:34:29;30.13;;;19.13;;
8952;SDS011;4511;50.890;8.054;2023-07-02T07:36:56;35.00;;;18.90;;
8952;SDS011;4511;50.890;8.054;2023-07-02T07:39:24;27.10;;;18.57;;
8952;SDS011;4511;50.890;8.054;2023-07-02T07:41:50;29.93;;;19.30;;
8952;SDS011;4511;50.890;8.054;2023-07-02T07:44:17;29.60;;;19.40;;
8952;SDS011;4511;50.890;8.054;2023-07-02T07:46:44;27.70;;;18.20;;
8952;SDS011;4511;50.890;8.054;2023-07-02T07:49:12;26.03;;;19.60;;
8952;SDS011;4511;50.890;8.054;2023-07-02T07:51:39;25.67;;;17.80;;
8952;SDS011;4511;50.890;8.054;2023-07-02T07:54:06;27.87;;;17.37;;
8952;SDS011;4511;50.890;8.054;2023-07-02T07:56:34;26.87;;;16.43;;
8952;SDS011;4511;50.890;8.054;2023-07-02T07:59:01;29.47;;;18.00;;
8952;SDS011;4511;50.890;8.054;2023-07-02T08:01:28;30.40;;;18.83;;
8952;SDS011;4511;50.890;8.054;2023-07-02T08:03:55;29.63;;;18.47;;
8952;SDS011;4511;50.890;8.054;2023-07-02T08:06:22;31.60;;;19.13;;
8952;SDS011;4511;50.890;8.054;2023-07-02T08:08:48;29.43;;;18.43;;
8952;SDS011;4511;50.890;8.054;2023-07-02T08:11:15;28.93;;;17.73;;
8952;SDS011;4511;50.890;8.054;2023-07-02T08:13:43;26.70;;;16.90;;
8952;SDS011;4511;50.890;8.054;2023-07-02T08:16:10;23.43;;;16.70;;
8952;SDS011;4511;50.890;8.054;2023-07-02T08:18:38;29.27;;;18.47;;
8952;SDS011;4511;50.890;8.054;2023-07-02T08:21:05;27.63;;;17.63;;
8952;SDS011;4511;50.890;8.054;2023-07-02T08:23:32;27.47;;;17.80;;
8952;SDS011;4511;50.890;8.054;2023-07-02T08:25:59;32.47;;;18.87;;
8952;SDS011;4511;50.890;8.054;2023-07-02T08:28:26;31.00;;;17.47;;
8952;SDS011;4511;50.890;8.054;2023-07-02T08:30:54;29.27;;;16.17;;
8952;SDS011;4511;50.890;8.054;2023-07-02T08:33:21;27.77;;;15.97;;
8952;SDS011;4511;50.890;8.054;2023-07-02T08:35:48;26.97;;;16.10;;
8952;SDS011;4511;50.890;8.054;2023-07-02T08:38:15;27.07;;;17.77;;
8952;SDS011;4511;50.890;8.054;2023-07-02T08:40:41;31.67;;;17.70;;
8952;SDS011;4511;50.890;8.054;2023-07-02T08:43:08;30.47;;;18.87;;
8952;SDS011;4511;50.890;8.054;2023-07-02T08:45:35;25.63;;;16.07;;
8952;SDS011;4511;50.890;8.054;2023-07-02T08:48:04;28.97;;;16.10;;
8952;SDS011;4511;50.890;8.054;2023-07-02T08:50:32;24.00;;;14.50;;
8952;SDS011;4511;50.890;8.054;2023-07-02T08:52:59;21.43;;;13.80;;
8952;SDS011;4511;50.890;8.054;2023-07-02T08:55:26;25.70;;;14.33;;
8952;SDS011;4511;50.890;8.054;2023-07-02T08:57:55;27.90;;;14.10;;
8952;SDS011;4511;50.890;8.054;2023-07-02T09:00:25;26.33;;;13.90;;
8952;SDS011;4511;50.890;8.054;2023-07-02T09:02:53;24.80;;;14.17;;
8952;SDS011;4511;50.890;8.054;2023-07-02T09:05:21;27.27;;;14.00;;
8952;SDS011;4511;50.890;8.054;2023-07-02T09:07:48;20.53;;;13.13;;
8952;SDS011;4511;50.890;8.054;2023-07-02T09:10:27;20.73;;;12.50;;
8952;SDS011;4511;50.890;8.054;2023-07-02T09:13:03;25.20;;;13.23;;
8952;SDS011;4511;50.890;8.054;2023-07-02T09:15:34;18.10;;;12.90;;
8952;SDS011;4511;50.890;8.054;2023-07-02T09:18:02;23.93;;;13.43;;
8952;SDS011;4511;50.890;8.054;2023-07-02T09:20:41;18.17;;;12.30;;
8952;SDS011;4511;50.890;8.054;2023-07-02T09:23:08;21.00;;;12.97;;
8952;SDS011;4511;50.890;8.054;2023-07-02T09:25:36;21.47;;;12.47;;
8952;SDS011;4511;50.890;8.054;2023-07-02T09:28:13;20.43;;;11.67;;
8952;SDS011;4511;50.890;8.054;2023-07-02T09:30:48;26.33;;;12.07;;
8952;SDS011;4511;50.890;8.054;2023-07-02T09:33:16;21.27;;;11.23;;
8952;SDS011;4511;50.890;8.054;2023-07-02T09:35:44;19.30;;;10.60;;
8952;SDS011;4511;50.890;8.054;2023-07-02T09:38:11;20.33;;;10.80;;
8952;SDS011;4511;50.890;8.054;2023-07-02T09:40:44;18.13;;;11.23;;
8952;SDS011;4511;50.890;8.054;2023-07-02T09:43:13;17.80;;;10.93;;
8952;SDS011;4511;50.890;8.054;2023-07-02T09:45:41;21.13;;;11.60;;
8952;SDS011;4511;50.890;8.054;2023-07-02T09:48:10;18.70;;;11.17;;
8952;SDS011;4511;50.890;8.054;2023-07-02T09:50:38;19.70;;;11.33;;
8952;SDS011;4511;50.890;8.054;2023-07-02T09:53:07;18.83;;;11.07;;
8952;SDS011;4511;50.890;8.054;2023-07-02T09:55:34;20.70;;;11.83;;
8952;SDS011;4511;50.890;8.054;2023-07-02T09:58:01;20.77;;;11.83;;
8952;SDS011;4511;50.890;8.054;2023-07-02T10:00:28;19.77;;;11.40;;
8952;SDS011;4511;50.890;8.054;2023-07-02T10:02:55;23.50;;;12.60;;
8952;SDS011;4511;50.890;8.054;2023-07-02T10:05:26;18.53;;;11.10;;
8952;SDS011;4511;50.890;8.054;2023-07-02T10:07:53;19.00;;;11.97;;
8952;SDS011;4511;50.890;8.054;2023-07-02T10:10:27;18.40;;;12.00;;
8952;SDS011;4511;50.890;8.054;2023-07-02T10:12:55;20.37;;;12.67;;
8952;SDS011;4511;50.890;8.054;2023-07-02T10:15:25;19.43;;;12.20;;
8952;SDS011;4511;50.890;8.054;2023-07-02T10:17:57;23.67;;;12.83;;
8952;SDS011;4511;50.890;8.054;2023-07-02T10:20:35;20.67;;;13.10;;
8952;SDS011;4511;50.890;8.054;2023-07-02T10:23:03;20.93;;;12.30;;
8952;SDS011;4511;50.890;8.054;2023-07-02T10:25:33;22.77;;;13.50;;
8952;SDS011;4511;50.890;8.054;2023-07-02T10:28:13;20.27;;;11.90;;
8952;SDS011;4511;50.890;8.054;2023-07-02T10:30:41;18.50;;;11.67;;
8952;SDS011;4511;50.890;8.054;2023-07-02T10:33:09;22.57;;;12.87;;
8952;SDS011;4511;50.890;8.054;2023-07-02T10:35:37;25.40;;;13.17;;
8952;SDS011;4511;50.890;8.054;2023-07-02T10:38:06;20.27;;;12.37;;
8952;SDS011;4511;50.890;8.054;2023-07-02T10:40:34;24.47;;;13.50;;
8952;SDS011;4511;50.890;8.054;2023-07-02T10:43:01;21.03;;;12.50;;
8952;SDS011;4511;50.890;8.054;2023-07-02T10:45:32;22.40;;;13.07;;
8952;SDS011;4511;50.890;8.054;2023-07-02T10:48:01;20.80;;;12.77;;
8952;SDS011;4511;50.890;8.054;2023-07-02T10:50:29;20.93;;;12.80;;
8952;SDS011;4511;50.890;8.054;2023-07-02T10:52:57;21.40;;;12.63;;
8952;SDS011;4511;50.890;8.054;2023-07-02T10:55:24;20.30;;;13.07;;
8952;SDS011;4511;50.890;8.054;2023-07-02T10:58:03;25.37;;;13.17;;
8952;SDS011;4511;50.890;8.054;2023-07-02T11:00:31;21.13;;;12.63;;
8952;SDS011;4511;50.890;8.054;2023-07-02T11:02:58;20.67;;;12.87;;
8952;SDS011;4511;50.890;8.054;2023-07-02T11:05:25;21.30;;;12.43;;
8952;SDS011;4511;50.890;8.054;2023-07-02T11:07:52;20.23;;;12.53;;
8952;SDS011;4511;50.890;8.054;2023-07-02T11:10:23;20.37;;;12.33;;
8952;SDS011;4511;50.890;8.054;2023-07-02T11:12:51;18.80;;;12.30;;
8952;SDS011;4511;50.890;8.054;2023-07-02T11:15:19;21.67;;;12.73;;
8952;SDS011;4511;50.890;8.054;2023-07-02T11:17:46;21.17;;;11.87;;
8952;SDS011;4511;50.890;8.054;2023-07-02T11:20:13;22.07;;;12.10;;
8952;SDS011;4511;50.890;8.054;2023-07-02T11:22:41;22.60;;;11.83;;
8952;SDS011;4511;50.890;8.054;2023-07-02T11:25:09;20.57;;;12.47;;
8952;SDS011;4511;50.890;8.054;2023-07-02T11:27:37;23.47;;;12.20;;
8952;SDS011;4511;50.890;8.054;2023-07-02T11:30:04;23.03;;;12.43;;
8952;SDS011;4511;50.890;8.054;2023-07-02T11:32:34;22.20;;;13.40;;
8952;SDS011;4511;50.890;8.054;2023-07-02T11:35:13;18.90;;;12.70;;
8952;SDS011;4511;50.890;8.054;2023-07-02T11:37:40;22.30;;;12.83;;
8952;SDS011;4511;50.890;8.054;2023-07-02T11:40:07;18.83;;;12.20;;
8952;SDS011;4511;50.890;8.054;2023-07-02T11:42:35;25.20;;;12.70;;
8952;SDS011;4511;50.890;8.054;2023-07-02T11:45:02;18.63;;;11.93;;
8952;SDS011;4511;50.890;8.054;2023-07-02T11:47:29;23.43;;;12.80;;
8952;SDS011;4511;50.890;8.054;2023-07-02T11:49:58;19.27;;;12.80;;
8952;SDS011;4511;50.890;8.054;2023-07-02T11:52:25;23.90;;;12.03;;
8952;SDS011;4511;50.890;8.054;2023-07-02T11:54:52;20.93;;;12.20;;
8952;SDS011;4511;50.890;8.054;2023-07-02T11:57:19;21.63;;;12.23;;
8952;SDS011;4511;50.890;8.054;2023-07-02T11:59:46;19.83;;;12.40;;
8952;SDS011;4511;50.890;8.054;2023-07-02T12:02:14;21.47;;;12.07;;
8952;SDS011;4511;50.890;8.054;2023-07-02T12:04:41;18.73;;;12.53;;
8952;SDS011;4511;50.890;8.054;2023-07-02T12:07:10;18.87;;;11.13;;
8952;SDS011;4511;50.890;8.054;2023-07-02T12:09:38;18.63;;;11.53;;
8952;SDS011;4511;50.890;8.054;2023-07-02T12:12:06;20.57;;;12.30;;
8952;SDS011;4511;50.890;8.054;2023-07-02T12:14:33;17.50;;;12.67;;
8952;SDS011;4511;50.890;8.054;2023-07-02T12:17:00;18.40;;;11.97;;
8952;SDS011;4511;50.890;8.054;2023-07-02T12:19:27;18.57;;;12.23;;
8952;SDS011;4511;50.890;8.054;2023-07-02T12:21:54;19.33;;;12.13;;
8952;SDS011;4511;50.890;8.054;2023-07-02T12:24:22;20.70;;;12.37;;
8952;SDS011;4511;50.890;8.054;2023-07-02T12:26:48;21.63;;;12.37;;
8952;SDS011;4511;50.890;8.054;2023-07-02T12:29:15;21.33;;;12.10;;
8952;SDS011;4511;50.890;8.054;2023-07-02T12:31:42;22.83;;;12.30;;
8952;SDS011;4511;50.890;8.054;2023-07-02T12:34:09;23.57;;;12.27;;
8952;SDS011;4511;50.890;8.054;2023-07-02T12:36:35;17.90;;;12.20;;
8952;SDS011;4511;50.890;8.054;2023-07-02T12:39:02;21.10;;;11.73;;
8952;SDS011;4511;50.890;8.054;2023-07-02T12:41:30;19.53;;;11.77;;
8952;SDS011;4511;50.890;8.054;2023-07-02T12:43:57;21.53;;;11.77;;
8952;SDS011;4511;50.890;8.054;2023-07-02T12:46:24;17.10;;;11.10;;
8952;SDS011;4511;50.890;8.054;2023-07-02T12:48:51;19.83;;;11.20;;
8952;SDS011;4511;50.890;8.054;2023-07-02T12:51:18;17.23;;;11.17;;
8952;SDS011;4511;50.890;8.054;2023-07-02T12:53:45;18.87;;;10.97;;
8952;SDS011;4511;50.890;8.054;2023-07-02T12:56:12;16.40;;;10.47;;
8952;SDS011;4511;50.890;8.054;2023-07-02T12:58:40;18.70;;;10.93;;
8952;SDS011;4511;50.890;8.054;2023-07-02T13:01:07;18.07;;;11.60;;
8952;SDS011;4511;50.890;8.054;2023-07-02T13:03:34;20.43;;;11.30;;
8952;SDS011;4511;50.890;8.054;2023-07-02T13:06:01;20.43;;;12.40;;
8952;SDS011;4511;50.890;8.054;2023-07-02T13:08:30;17.43;;;11.10;;
8952;SDS011;4511;50.890;8.054;2023-07-02T13:10:57;18.20;;;11.90;;
8952;SDS011;4511;50.890;8.054;2023-07-02T13:13:26;16.60;;;11.30;;
8952;SDS011;4511;50.890;8.054;2023-07-02T13:15:54;17.63;;;12.00;;
8952;SDS011;4511;50.890;8.054;2023-07-02T13:18:21;18.67;;;11.27;;
8952;SDS011;4511;50.890;8.054;2023-07-02T13:20:47;19.50;;;12.27;;
8952;SDS011;4511;50.890;8.054;2023-07-02T13:23:14;21.77;;;12.10;;
8952;SDS011;4511;50.890;8.054;2023-07-02T13:25:41;18.03;;;11.77;;
8952;SDS011;4511;50.890;8.054;2023-07-02T13:28:08;18.43;;;11.77;;
8952;SDS011;4511;50.890;8.054;2023-07-02T13:30:35;19.13;;;12.13;;
8952;SDS011;4511;50.890;8.054;2023-07-02T13:33:03;19.47;;;12.40;;
8952;SDS011;4511;50.890;8.054;2023-07-02T13:35:30;19.47;;;12.27;;
8952;SDS011;4511;50.890;8.054;2023-07-02T13:37:57;18.40;;;12.23;;
8952;SDS011;4511;50.890;8.054;2023-07-02T13:40:26;20.77;;;12.20;;
8952;SDS011;4511;50.890;8.054;2023-07-02T13:42:53;22.30;;;12.27;;
8952;SDS011;4511;50.890;8.054;2023-07-02T13:45:21;21.20;;;12.73;;
8952;SDS011;4511;50.890;8.054;2023-07-02T13:47:48;23.53;;;13.70;;
8952;SDS011;4511;50.890;8.054;2023-07-02T13:50:17;21.23;;;13.30;;
8952;SDS011;4511;50.890;8.054;2023-07-02T13:52:44;20.23;;;12.57;;
8952;SDS011;4511;50.890;8.054;2023-07-02T13:55:11;26.00;;;13.50;;
8952;SDS011;4511;50.890;8.054;2023-07-02T13:57:38;20.30;;;12.23;;
8952;SDS011;4511;50.890;8.054;2023-07-02T14:00:07;20.70;;;12.27;;
8952;SDS011;4511;50.890;8.054;2023-07-02T14:02:34;18.73;;;13.07;;
8952;SDS011;4511;50.890;8.054;2023-07-02T14:05:01;20.10;;;12.60;;
8952;SDS011;4511;50.890;8.054;2023-07-02T14:07:28;18.27;;;11.27;;
8952;SDS011;4511;50.890;8.054;2023-07-02T14:09:55;23.10;;;12.10;;
8952;SDS011;4511;50.890;8.054;2023-07-02T14:12:22;15.43;;;10.97;;
8952;SDS011;4511;50.890;8.054;2023-07-02T14:14:49;19.53;;;11.63;;
8952;SDS011;4511;50.890;8.054;2023-07-02T14:17:17;18.10;;;11.20;;
8952;SDS011;4511;50.890;8.054;2023-07-02T14:19:44;20.50;;;12.17;;
8952;SDS011;4511;50.890;8.054;2023-07-02T14:22:11;21.07;;;12.03;;
8952;SDS011;4511;50.890;8.054;2023-07-02T14:24:38;17.67;;;11.90;;
8952;SDS011;4511;50.890;8.054;2023-07-02T14:27:05;17.10;;;11.63;;
8952;SDS011;4511;50.890;8.054;2023-07-02T14:29:32;18.10;;;12.27;;
8952;SDS011;4511;50.890;8.054;2023-07-02T14:31:59;19.33;;;11.57;;
8952;SDS011;4511;50.890;8.054;2023-07-02T14:34:28;19.53;;;12.00;;
8952;SDS011;4511;50.890;8.054;2023-07-02T14:36:55;19.33;;;11.63;;
8952;SDS011;4511;50.890;8.054;2023-07-02T14:39:24;18.50;;;11.40;;
8952;SDS011;4511;50.890;8.054;2023-07-02T14:41:50;17.33;;;11.43;;
8952;SDS011;4511;50.890;8.054;2023-07-02T14:44:17;19.33;;;11.50;;
8952;SDS011;4511;50.890;8.054;2023-07-02T14:46:44;20.30;;;11.73;;
8952;SDS011;4511;50.890;8.054;2023-07-02T14:49:11;20.63;;;11.20;;
8952;SDS011;4511;50.890;8.054;2023-07-02T14:51:39;19.97;;;11.00;;
8952;SDS011;4511;50.890;8.054;2023-07-02T14:54:06;21.47;;;11.27;;
8952;SDS011;4511;50.890;8.054;2023-07-02T14:56:33;15.70;;;10.43;;
8952;SDS011;4511;50.890;8.054;2023-07-02T14:59:01;16.97;;;10.83;;